Saint Helena Island, United Kingdom
Current Conditions -  °F | °C
As of 4:50 PM on Wednesday 26 Nov 2014 (Local Time) from FHAW Reporting Station
Scattered Clouds Scattered Clouds  
Wind Chill: 26°   Ceiling: Unl
Heat Index: 27°   Visibility: 6mi
Dew Point: 18°   Wind: 21mph
Humidity: 61%   Direction: 150°SSE
Pressure: 29.94"   Gusts: NA
Location:  15.93°S, 5.07°W
Report Text: FHAW 261550Z 15018KT 9999 SCT025 26/18 Q1014 BLU NOSIG
Loading
Personal Weather Stations






























Interactive Weather Map New forecast layout! Learn more

10-Day Weather Forecast

Advertisements
Track Severe Weather on mobile